sensor_id;sensor_type;location;lat;lon;timestamp;P1;durP1;ratioP1;P2;durP2;ratioP2
36497;SDS011;22513;51.222;6.480;2022-11-06T00:00:41;11.45;;;4.60;;
36497;SDS011;22513;51.222;6.480;2022-11-06T00:03:07;11.68;;;5.30;;
36497;SDS011;22513;51.222;6.480;2022-11-06T00:05:33;8.63;;;4.95;;
36497;SDS011;22513;51.222;6.480;2022-11-06T00:08:35;13.88;;;3.90;;
36497;SDS011;22513;51.222;6.480;2022-11-06T00:11:09;11.25;;;4.10;;
36497;SDS011;22513;51.222;6.480;2022-11-06T00:13:36;7.63;;;4.22;;
36497;SDS011;22513;51.222;6.480;2022-11-06T00:16:04;5.57;;;4.03;;
36497;SDS011;22513;51.222;6.480;2022-11-06T00:18:31;5.43;;;3.83;;
36497;SDS011;22513;51.222;6.480;2022-11-06T00:20:57;9.35;;;4.15;;
36497;SDS011;22513;51.222;6.480;2022-11-06T00:23:22;8.95;;;4.75;;
36497;SDS011;22513;51.222;6.480;2022-11-06T00:25:48;9.52;;;4.82;;
36497;SDS011;22513;51.222;6.480;2022-11-06T00:28:19;8.57;;;4.47;;
36497;SDS011;22513;51.222;6.480;2022-11-06T00:30:45;9.27;;;4.80;;
36497;SDS011;22513;51.222;6.480;2022-11-06T00:33:11;6.95;;;4.00;;
36497;SDS011;22513;51.222;6.480;2022-11-06T00:35:37;8.02;;;4.28;;
36497;SDS011;22513;51.222;6.480;2022-11-06T00:38:03;8.30;;;4.78;;
36497;SDS011;22513;51.222;6.480;2022-11-06T00:40:29;9.73;;;4.85;;
36497;SDS011;22513;51.222;6.480;2022-11-06T00:42:55;7.72;;;4.35;;
36497;SDS011;22513;51.222;6.480;2022-11-06T00:45:22;7.00;;;4.50;;
36497;SDS011;22513;51.222;6.480;2022-11-06T00:47:48;11.50;;;5.20;;
36497;SDS011;22513;51.222;6.480;2022-11-06T00:50:14;7.80;;;4.15;;
36497;SDS011;22513;51.222;6.480;2022-11-06T00:52:39;7.30;;;4.55;;
36497;SDS011;22513;51.222;6.480;2022-11-06T00:55:05;15.15;;;4.97;;
36497;SDS011;22513;51.222;6.480;2022-11-06T00:57:31;10.52;;;4.85;;
36497;SDS011;22513;51.222;6.480;2022-11-06T00:59:56;6.35;;;4.80;;
36497;SDS011;22513;51.222;6.480;2022-11-06T01:02:22;12.23;;;5.50;;
36497;SDS011;22513;51.222;6.480;2022-11-06T01:04:47;11.77;;;4.80;;
36497;SDS011;22513;51.222;6.480;2022-11-06T01:07:13;8.30;;;4.40;;
36497;SDS011;22513;51.222;6.480;2022-11-06T01:09:39;9.35;;;4.90;;
36497;SDS011;22513;51.222;6.480;2022-11-06T01:12:04;7.55;;;4.78;;
36497;SDS011;22513;51.222;6.480;2022-11-06T01:14:30;8.63;;;4.95;;
36497;SDS011;22513;51.222;6.480;2022-11-06T01:16:55;10.52;;;4.80;;
36497;SDS011;22513;51.222;6.480;2022-11-06T01:19:21;9.27;;;4.15;;
36497;SDS011;22513;51.222;6.480;2022-11-06T01:21:48;14.02;;;5.43;;
36497;SDS011;22513;51.222;6.480;2022-11-06T01:24:18;8.85;;;4.63;;
36497;SDS011;22513;51.222;6.480;2022-11-06T01:26:45;14.47;;;4.73;;
36497;SDS011;22513;51.222;6.480;2022-11-06T01:29:12;13.23;;;4.45;;
36497;SDS011;22513;51.222;6.480;2022-11-06T01:31:39;8.95;;;4.57;;
36497;SDS011;22513;51.222;6.480;2022-11-06T01:34:05;8.55;;;4.65;;
36497;SDS011;22513;51.222;6.480;2022-11-06T01:36:30;7.00;;;3.90;;
36497;SDS011;22513;51.222;6.480;2022-11-06T01:38:57;13.93;;;5.10;;
36497;SDS011;22513;51.222;6.480;2022-11-06T01:41:29;10.13;;;4.63;;
36497;SDS011;22513;51.222;6.480;2022-11-06T01:43:58;7.15;;;3.97;;
36497;SDS011;22513;51.222;6.480;2022-11-06T01:46:27;7.30;;;4.10;;
36497;SDS011;22513;51.222;6.480;2022-11-06T01:48:56;10.57;;;4.18;;
36497;SDS011;22513;51.222;6.480;2022-11-06T01:51:32;8.32;;;4.05;;
36497;SDS011;22513;51.222;6.480;2022-11-06T01:54:03;13.40;;;4.22;;
36497;SDS011;22513;51.222;6.480;2022-11-06T01:56:30;9.05;;;3.97;;
36497;SDS011;22513;51.222;6.480;2022-11-06T01:58:56;7.60;;;3.80;;
36497;SDS011;22513;51.222;6.480;2022-11-06T02:01:22;13.32;;;4.38;;
36497;SDS011;22513;51.222;6.480;2022-11-06T02:03:50;10.38;;;3.75;;
36497;SDS011;22513;51.222;6.480;2022-11-06T02:06:21;8.23;;;3.40;;
36497;SDS011;22513;51.222;6.480;2022-11-06T02:08:47;7.35;;;3.50;;
36497;SDS011;22513;51.222;6.480;2022-11-06T02:11:13;6.07;;;3.38;;
36497;SDS011;22513;51.222;6.480;2022-11-06T02:19:13;7.38;;;3.03;;
36497;SDS011;22513;51.222;6.480;2022-11-06T02:30:02;6.90;;;2.97;;
36497;SDS011;22513;51.222;6.480;2022-11-06T02:35:57;4.72;;;2.78;;
36497;SDS011;22513;51.222;6.480;2022-11-06T02:38:46;4.75;;;2.75;;
36497;SDS011;22513;51.222;6.480;2022-11-06T02:41:21;4.68;;;2.45;;
36497;SDS011;22513;51.222;6.480;2022-11-06T02:43:52;6.60;;;2.72;;
36497;SDS011;22513;51.222;6.480;2022-11-06T02:46:26;5.93;;;2.50;;
36497;SDS011;22513;51.222;6.480;2022-11-06T02:49:01;5.63;;;2.90;;
36497;SDS011;22513;51.222;6.480;2022-11-06T02:51:32;8.88;;;2.50;;
36497;SDS011;22513;51.222;6.480;2022-11-06T02:54:04;7.70;;;2.63;;
36497;SDS011;22513;51.222;6.480;2022-11-06T02:56:34;10.07;;;2.50;;
36497;SDS011;22513;51.222;6.480;2022-11-06T02:59:09;8.57;;;2.95;;
36497;SDS011;22513;51.222;6.480;2022-11-06T03:01:41;8.10;;;2.70;;
36497;SDS011;22513;51.222;6.480;2022-11-06T03:04:21;7.68;;;3.50;;
36497;SDS011;22513;51.222;6.480;2022-11-06T03:06:53;6.72;;;2.75;;
36497;SDS011;22513;51.222;6.480;2022-11-06T03:09:33;4.72;;;2.40;;
36497;SDS011;22513;51.222;6.480;2022-11-06T03:22:38;6.43;;;2.63;;
36497;SDS011;22513;51.222;6.480;2022-11-06T03:25:13;6.70;;;2.80;;
36497;SDS011;22513;51.222;6.480;2022-11-06T03:27:52;7.00;;;2.63;;
36497;SDS011;22513;51.222;6.480;2022-11-06T03:30:23;5.35;;;2.20;;
36497;SDS011;22513;51.222;6.480;2022-11-06T03:32:51;4.30;;;2.65;;
36497;SDS011;22513;51.222;6.480;2022-11-06T03:35:35;5.57;;;2.38;;
36497;SDS011;22513;51.222;6.480;2022-11-06T03:38:06;6.13;;;2.42;;
36497;SDS011;22513;51.222;6.480;2022-11-06T03:40:38;9.85;;;2.60;;
36497;SDS011;22513;51.222;6.480;2022-11-06T03:43:08;7.00;;;2.72;;
36497;SDS011;22513;51.222;6.480;2022-11-06T03:45:36;5.82;;;2.05;;
36497;SDS011;22513;51.222;6.480;2022-11-06T03:48:20;8.50;;;2.70;;
36497;SDS011;22513;51.222;6.480;2022-11-06T03:50:59;8.52;;;2.60;;
36497;SDS011;22513;51.222;6.480;2022-11-06T03:53:38;8.80;;;2.70;;
36497;SDS011;22513;51.222;6.480;2022-11-06T03:56:09;7.13;;;2.40;;
36497;SDS011;22513;51.222;6.480;2022-11-06T03:58:41;5.55;;;2.72;;
36497;SDS011;22513;51.222;6.480;2022-11-06T04:01:10;7.55;;;2.75;;
36497;SDS011;22513;51.222;6.480;2022-11-06T04:03:38;7.65;;;3.20;;
36497;SDS011;22513;51.222;6.480;2022-11-06T04:08:42;5.72;;;2.20;;
36497;SDS011;22513;51.222;6.480;2022-11-06T04:11:28;5.32;;;2.80;;
36497;SDS011;22513;51.222;6.480;2022-11-06T04:14:16;7.20;;;2.45;;
36497;SDS011;22513;51.222;6.480;2022-11-06T04:16:49;11.73;;;2.92;;
36497;SDS011;22513;51.222;6.480;2022-11-06T04:24:45;6.00;;;1.75;;
36497;SDS011;22513;51.222;6.480;2022-11-06T04:30:18;9.60;;;2.90;;
36497;SDS011;22513;51.222;6.480;2022-11-06T04:35:28;11.15;;;2.80;;
36497;SDS011;22513;51.222;6.480;2022-11-06T04:38:01;8.07;;;2.10;;
36497;SDS011;22513;51.222;6.480;2022-11-06T04:46:00;7.53;;;2.30;;
36497;SDS011;22513;51.222;6.480;2022-11-06T04:48:28;5.82;;;2.55;;
36497;SDS011;22513;51.222;6.480;2022-11-06T04:50:55;7.35;;;2.13;;
36497;SDS011;22513;51.222;6.480;2022-11-06T04:53:25;5.75;;;2.85;;
36497;SDS011;22513;51.222;6.480;2022-11-06T04:55:55;6.22;;;2.10;;
36497;SDS011;22513;51.222;6.480;2022-11-06T04:58:30;7.60;;;2.88;;
36497;SDS011;22513;51.222;6.480;2022-11-06T05:00:55;5.03;;;2.30;;
36497;SDS011;22513;51.222;6.480;2022-11-06T05:03:21;6.68;;;2.55;;
36497;SDS011;22513;51.222;6.480;2022-11-06T05:05:46;5.60;;;2.70;;
36497;SDS011;22513;51.222;6.480;2022-11-06T05:08:13;7.20;;;2.13;;
36497;SDS011;22513;51.222;6.480;2022-11-06T05:10:41;5.57;;;2.40;;
36497;SDS011;22513;51.222;6.480;2022-11-06T05:13:07;6.22;;;2.20;;
36497;SDS011;22513;51.222;6.480;2022-11-06T05:15:33;4.55;;;2.30;;
36497;SDS011;22513;51.222;6.480;2022-11-06T05:17:59;8.13;;;2.95;;
36497;SDS011;22513;51.222;6.480;2022-11-06T05:20:24;5.68;;;2.38;;
36497;SDS011;22513;51.222;6.480;2022-11-06T05:22:50;4.90;;;2.40;;
36497;SDS011;22513;51.222;6.480;2022-11-06T05:25:23;8.63;;;3.13;;
36497;SDS011;22513;51.222;6.480;2022-11-06T05:27:49;5.15;;;2.40;;
36497;SDS011;22513;51.222;6.480;2022-11-06T05:30:14;5.97;;;2.58;;
36497;SDS011;22513;51.222;6.480;2022-11-06T05:32:40;7.88;;;3.05;;
36497;SDS011;22513;51.222;6.480;2022-11-06T05:35:06;7.82;;;2.78;;
36497;SDS011;22513;51.222;6.480;2022-11-06T05:37:32;8.55;;;2.53;;
36497;SDS011;22513;51.222;6.480;2022-11-06T05:39:57;11.90;;;3.10;;
36497;SDS011;22513;51.222;6.480;2022-11-06T05:42:23;7.22;;;3.08;;
36497;SDS011;22513;51.222;6.480;2022-11-06T05:44:49;8.40;;;2.80;;
36497;SDS011;22513;51.222;6.480;2022-11-06T05:47:14;9.13;;;3.10;;
36497;SDS011;22513;51.222;6.480;2022-11-06T05:49:40;7.18;;;3.13;;
36497;SDS011;22513;51.222;6.480;2022-11-06T05:52:12;10.57;;;3.97;;
36497;SDS011;22513;51.222;6.480;2022-11-06T05:54:37;8.00;;;3.10;;
36497;SDS011;22513;51.222;6.480;2022-11-06T05:57:03;12.98;;;3.13;;
36497;SDS011;22513;51.222;6.480;2022-11-06T05:59:29;7.32;;;3.20;;
36497;SDS011;22513;51.222;6.480;2022-11-06T06:01:54;8.68;;;3.78;;
36497;SDS011;22513;51.222;6.480;2022-11-06T06:04:20;7.97;;;3.70;;
36497;SDS011;22513;51.222;6.480;2022-11-06T06:06:46;7.97;;;3.97;;
36497;SDS011;22513;51.222;6.480;2022-11-06T06:09:11;8.52;;;3.08;;
36497;SDS011;22513;51.222;6.480;2022-11-06T06:11:37;8.90;;;3.63;;
36497;SDS011;22513;51.222;6.480;2022-11-06T06:14:02;12.82;;;3.58;;
36497;SDS011;22513;51.222;6.480;2022-11-06T06:16:28;9.98;;;3.80;;
36497;SDS011;22513;51.222;6.480;2022-11-06T06:18:54;9.93;;;3.58;;
36497;SDS011;22513;51.222;6.480;2022-11-06T06:21:20;8.93;;;3.58;;
36497;SDS011;22513;51.222;6.480;2022-11-06T06:23:45;7.57;;;4.32;;
36497;SDS011;22513;51.222;6.480;2022-11-06T06:26:11;11.05;;;3.85;;
36497;SDS011;22513;51.222;6.480;2022-11-06T06:28:36;14.77;;;4.85;;
36497;SDS011;22513;51.222;6.480;2022-11-06T06:31:03;12.93;;;4.93;;
36497;SDS011;22513;51.222;6.480;2022-11-06T06:33:29;16.38;;;4.22;;
36497;SDS011;22513;51.222;6.480;2022-11-06T06:35:55;9.05;;;4.45;;
36497;SDS011;22513;51.222;6.480;2022-11-06T06:38:21;10.35;;;4.43;;
36497;SDS011;22513;51.222;6.480;2022-11-06T06:40:46;8.52;;;3.83;;
36497;SDS011;22513;51.222;6.480;2022-11-06T06:43:12;10.55;;;3.97;;
36497;SDS011;22513;51.222;6.480;2022-11-06T06:45:38;13.18;;;4.63;;
36497;SDS011;22513;51.222;6.480;2022-11-06T06:48:03;10.38;;;4.18;;
36497;SDS011;22513;51.222;6.480;2022-11-06T06:50:30;11.88;;;3.75;;
36497;SDS011;22513;51.222;6.480;2022-11-06T06:52:56;9.40;;;4.10;;
36497;SDS011;22513;51.222;6.480;2022-11-06T06:55:23;8.68;;;4.05;;
36497;SDS011;22513;51.222;6.480;2022-11-06T06:57:56;9.65;;;3.22;;
36497;SDS011;22513;51.222;6.480;2022-11-06T07:00:22;7.05;;;4.57;;
36497;SDS011;22513;51.222;6.480;2022-11-06T07:02:48;11.77;;;3.33;;
36497;SDS011;22513;51.222;6.480;2022-11-06T07:05:13;11.30;;;3.45;;
36497;SDS011;22513;51.222;6.480;2022-11-06T07:07:39;9.10;;;3.25;;
36497;SDS011;22513;51.222;6.480;2022-11-06T07:10:04;7.30;;;3.03;;
36497;SDS011;22513;51.222;6.480;2022-11-06T07:12:30;6.30;;;3.03;;
36497;SDS011;22513;51.222;6.480;2022-11-06T07:14:56;6.68;;;3.15;;
36497;SDS011;22513;51.222;6.480;2022-11-06T07:17:21;11.20;;;3.65;;
36497;SDS011;22513;51.222;6.480;2022-11-06T07:19:47;8.52;;;3.28;;
36497;SDS011;22513;51.222;6.480;2022-11-06T07:22:12;8.05;;;3.33;;
36497;SDS011;22513;51.222;6.480;2022-11-06T07:24:38;7.55;;;3.22;;
36497;SDS011;22513;51.222;6.480;2022-11-06T07:27:04;10.77;;;4.22;;
36497;SDS011;22513;51.222;6.480;2022-11-06T07:29:29;13.00;;;3.58;;
36497;SDS011;22513;51.222;6.480;2022-11-06T07:31:55;10.55;;;3.63;;
36497;SDS011;22513;51.222;6.480;2022-11-06T07:34:20;6.28;;;2.70;;
36497;SDS011;22513;51.222;6.480;2022-11-06T07:36:46;10.55;;;3.60;;
36497;SDS011;22513;51.222;6.480;2022-11-06T07:39:11;7.68;;;3.25;;
36497;SDS011;22513;51.222;6.480;2022-11-06T07:41:37;5.68;;;2.38;;
36497;SDS011;22513;51.222;6.480;2022-11-06T07:44:03;9.55;;;3.33;;
36497;SDS011;22513;51.222;6.480;2022-11-06T07:46:29;5.05;;;2.92;;
36497;SDS011;22513;51.222;6.480;2022-11-06T07:48:55;7.57;;;2.60;;
36497;SDS011;22513;51.222;6.480;2022-11-06T07:51:20;6.05;;;2.95;;
36497;SDS011;22513;51.222;6.480;2022-11-06T07:53:46;8.75;;;2.38;;
36497;SDS011;22513;51.222;6.480;2022-11-06T07:56:11;8.13;;;2.45;;
36497;SDS011;22513;51.222;6.480;2022-11-06T07:58:37;9.63;;;2.53;;
36497;SDS011;22513;51.222;6.480;2022-11-06T08:01:03;9.50;;;2.28;;
36497;SDS011;22513;51.222;6.480;2022-11-06T08:03:29;5.18;;;2.65;;
36497;SDS011;22513;51.222;6.480;2022-11-06T08:05:55;8.50;;;2.17;;
36497;SDS011;22513;51.222;6.480;2022-11-06T08:08:22;4.85;;;2.35;;
36497;SDS011;22513;51.222;6.480;2022-11-06T08:10:47;7.20;;;2.55;;
36497;SDS011;22513;51.222;6.480;2022-11-06T08:13:16;7.40;;;3.10;;
36497;SDS011;22513;51.222;6.480;2022-11-06T08:15:42;14.23;;;2.90;;
36497;SDS011;22513;51.222;6.480;2022-11-06T08:18:08;7.65;;;2.50;;
36497;SDS011;22513;51.222;6.480;2022-11-06T08:20:35;4.45;;;2.13;;
36497;SDS011;22513;51.222;6.480;2022-11-06T08:23:03;4.63;;;2.33;;
36497;SDS011;22513;51.222;6.480;2022-11-06T08:25:30;6.93;;;3.65;;
36497;SDS011;22513;51.222;6.480;2022-11-06T08:27:56;6.72;;;1.60;;
36497;SDS011;22513;51.222;6.480;2022-11-06T08:30:23;5.38;;;1.98;;
36497;SDS011;22513;51.222;6.480;2022-11-06T08:32:49;6.97;;;1.80;;
36497;SDS011;22513;51.222;6.480;2022-11-06T08:35:15;4.32;;;2.53;;
36497;SDS011;22513;51.222;6.480;2022-11-06T08:37:41;5.18;;;1.50;;
36497;SDS011;22513;51.222;6.480;2022-11-06T08:40:07;9.63;;;2.08;;
36497;SDS011;22513;51.222;6.480;2022-11-06T08:42:33;4.28;;;1.60;;
36497;SDS011;22513;51.222;6.480;2022-11-06T08:44:59;3.78;;;1.50;;
36497;SDS011;22513;51.222;6.480;2022-11-06T08:47:24;4.53;;;2.47;;
36497;SDS011;22513;51.222;6.480;2022-11-06T08:49:50;5.68;;;2.17;;
36497;SDS011;22513;51.222;6.480;2022-11-06T08:52:16;6.72;;;1.50;;
36497;SDS011;22513;51.222;6.480;2022-11-06T08:54:41;3.45;;;1.58;;
36497;SDS011;22513;51.222;6.480;2022-11-06T08:57:07;8.07;;;1.92;;
36497;SDS011;22513;51.222;6.480;2022-11-06T08:59:39;8.20;;;1.48;;
36497;SDS011;22513;51.222;6.480;2022-11-06T09:02:05;5.50;;;1.80;;
36497;SDS011;22513;51.222;6.480;2022-11-06T09:04:31;6.35;;;1.80;;
36497;SDS011;22513;51.222;6.480;2022-11-06T09:06:56;7.00;;;1.83;;
36497;SDS011;22513;51.222;6.480;2022-11-06T09:09:22;2.95;;;1.83;;
36497;SDS011;22513;51.222;6.480;2022-11-06T09:11:55;8.57;;;2.20;;
36497;SDS011;22513;51.222;6.480;2022-11-06T09:14:22;9.10;;;2.42;;
36497;SDS011;22513;51.222;6.480;2022-11-06T09:16:47;4.70;;;1.52;;
36497;SDS011;22513;51.222;6.480;2022-11-06T09:19:13;4.50;;;1.58;;
36497;SDS011;22513;51.222;6.480;2022-11-06T09:21:38;5.13;;;1.30;;
36497;SDS011;22513;51.222;6.480;2022-11-06T09:24:04;3.65;;;1.33;;
36497;SDS011;22513;51.222;6.480;2022-11-06T09:26:30;6.60;;;2.13;;
36497;SDS011;22513;51.222;6.480;2022-11-06T09:28:56;5.72;;;1.90;;
36497;SDS011;22513;51.222;6.480;2022-11-06T09:31:21;2.08;;;1.25;;
36497;SDS011;22513;51.222;6.480;2022-11-06T09:33:47;7.05;;;1.42;;
36497;SDS011;22513;51.222;6.480;2022-11-06T09:36:12;6.40;;;1.67;;
36497;SDS011;22513;51.222;6.480;2022-11-06T09:38:38;6.28;;;1.20;;
36497;SDS011;22513;51.222;6.480;2022-11-06T09:41:04;2.67;;;1.20;;
36497;SDS011;22513;51.222;6.480;2022-11-06T09:49:16;4.53;;;1.70;;
36497;SDS011;22513;51.222;6.480;2022-11-06T09:52:07;2.80;;;1.33;;
36497;SDS011;22513;51.222;6.480;2022-11-06T09:54:41;4.53;;;2.05;;
36497;SDS011;22513;51.222;6.480;2022-11-06T09:57:18;3.25;;;1.33;;
36497;SDS011;22513;51.222;6.480;2022-11-06T09:59:49;5.63;;;1.30;;
36497;SDS011;22513;51.222;6.480;2022-11-06T10:02:27;6.10;;;1.35;;
36497;SDS011;22513;51.222;6.480;2022-11-06T10:07:33;5.00;;;1.55;;
36497;SDS011;22513;51.222;6.480;2022-11-06T10:10:00;5.28;;;1.42;;
36497;SDS011;22513;51.222;6.480;2022-11-06T10:15:26;6.05;;;1.70;;
36497;SDS011;22513;51.222;6.480;2022-11-06T10:18:04;4.90;;;1.40;;
36497;SDS011;22513;51.222;6.480;2022-11-06T10:20:53;4.00;;;1.88;;
36497;SDS011;22513;51.222;6.480;2022-11-06T10:24:26;3.95;;;1.50;;
36497;SDS011;22513;51.222;6.480;2022-11-06T10:26:25;5.35;;;2.10;;
36497;SDS011;22513;51.222;6.480;2022-11-06T10:32:01;3.47;;;1.83;;
36497;SDS011;22513;51.222;6.480;2022-11-06T10:34:51;5.22;;;2.53;;
36497;SDS011;22513;51.222;6.480;2022-11-06T10:37:57;5.78;;;2.40;;
36497;SDS011;22513;51.222;6.480;2022-11-06T10:40:29;3.72;;;1.75;;
36497;SDS011;22513;51.222;6.480;2022-11-06T10:45:22;4.28;;;1.60;;
36497;SDS011;22513;51.222;6.480;2022-11-06T10:47:51;5.45;;;1.73;;
36497;SDS011;22513;51.222;6.480;2022-11-06T10:50:33;6.13;;;1.55;;
36497;SDS011;22513;51.222;6.480;2022-11-06T10:58:48;4.13;;;1.88;;
36497;SDS011;22513;51.222;6.480;2022-11-06T11:01:13;2.92;;;1.73;;
36497;SDS011;22513;51.222;6.480;2022-11-06T11:03:40;4.90;;;1.63;;
36497;SDS011;22513;51.222;6.480;2022-11-06T11:06:08;4.57;;;1.80;;
36497;SDS011;22513;51.222;6.480;2022-11-06T11:08:41;8.77;;;1.90;;
36497;SDS011;22513;51.222;6.480;2022-11-06T11:13:37;3.58;;;1.48;;
36497;SDS011;22513;51.222;6.480;2022-11-06T11:16:42;2.60;;;1.50;;
36497;SDS011;22513;51.222;6.480;2022-11-06T11:21:57;2.85;;;1.23;;
36497;SDS011;22513;51.222;6.480;2022-11-06T11:24:25;7.72;;;1.98;;
36497;SDS011;22513;51.222;6.480;2022-11-06T11:27:04;4.45;;;1.70;;
36497;SDS011;22513;51.222;6.480;2022-11-06T11:29:41;4.18;;;1.40;;
36497;SDS011;22513;51.222;6.480;2022-11-06T11:32:11;4.80;;;1.58;;
36497;SDS011;22513;51.222;6.480;2022-11-06T11:34:44;5.80;;;1.90;;
36497;SDS011;22513;51.222;6.480;2022-11-06T11:37:20;2.67;;;1.20;;
36497;SDS011;22513;51.222;6.480;2022-11-06T11:39:47;2.75;;;1.23;;
36497;SDS011;22513;51.222;6.480;2022-11-06T11:42:23;4.47;;;1.15;;
36497;SDS011;22513;51.222;6.480;2022-11-06T11:45:09;2.03;;;1.00;;
36497;SDS011;22513;51.222;6.480;2022-11-06T11:47:39;2.92;;;1.55;;
36497;SDS011;22513;51.222;6.480;2022-11-06T11:55:44;5.07;;;1.35;;
36497;SDS011;22513;51.222;6.480;2022-11-06T11:58:14;2.75;;;1.33;;
36497;SDS011;22513;51.222;6.480;2022-11-06T12:00:51;4.55;;;1.70;;
36497;SDS011;22513;51.222;6.480;2022-11-06T12:03:33;5.32;;;1.98;;
36497;SDS011;22513;51.222;6.480;2022-11-06T12:06:08;3.55;;;1.63;;
36497;SDS011;22513;51.222;6.480;2022-11-06T12:08:35;5.63;;;1.70;;
36497;SDS011;22513;51.222;6.480;2022-11-06T12:11:03;4.82;;;1.98;;
36497;SDS011;22513;51.222;6.480;2022-11-06T12:13:30;6.03;;;2.10;;
36497;SDS011;22513;51.222;6.480;2022-11-06T12:16:00;4.70;;;1.40;;
36497;SDS011;22513;51.222;6.480;2022-11-06T12:18:32;2.20;;;1.20;;
36497;SDS011;22513;51.222;6.480;2022-11-06T12:26:19;4.15;;;1.83;;
36497;SDS011;22513;51.222;6.480;2022-11-06T12:29:46;2.63;;;1.23;;
36497;SDS011;22513;51.222;6.480;2022-11-06T12:37:27;6.57;;;1.80;;
36497;SDS011;22513;51.222;6.480;2022-11-06T12:40:00;7.18;;;2.22;;
36497;SDS011;22513;51.222;6.480;2022-11-06T12:42:36;5.25;;;2.28;;
36497;SDS011;22513;51.222;6.480;2022-11-06T12:45:09;7.10;;;3.30;;
36497;SDS011;22513;51.222;6.480;2022-11-06T12:50:22;5.50;;;2.30;;
36497;SDS011;22513;51.222;6.480;2022-11-06T13:06:36;5.07;;;2.78;;
36497;SDS011;22513;51.222;6.480;2022-11-06T13:09:11;3.97;;;2.30;;
36497;SDS011;22513;51.222;6.480;2022-11-06T13:11:47;6.03;;;2.58;;
36497;SDS011;22513;51.222;6.480;2022-11-06T13:22:34;3.45;;;2.17;;
36497;SDS011;22513;51.222;6.480;2022-11-06T13:25:19;5.57;;;2.33;;
36497;SDS011;22513;51.222;6.480;2022-11-06T13:28:02;8.15;;;1.75;;
36497;SDS011;22513;51.222;6.480;2022-11-06T13:30:51;4.25;;;1.60;;
36497;SDS011;22513;51.222;6.480;2022-11-06T13:35:46;4.30;;;1.80;;
36497;SDS011;22513;51.222;6.480;2022-11-06T13:38:13;3.15;;;1.33;;
36497;SDS011;22513;51.222;6.480;2022-11-06T13:40:43;2.50;;;1.20;;
36497;SDS011;22513;51.222;6.480;2022-11-06T13:43:18;5.97;;;1.42;;
36497;SDS011;22513;51.222;6.480;2022-11-06T13:51:37;5.88;;;1.50;;
36497;SDS011;22513;51.222;6.480;2022-11-06T13:54:27;3.75;;;1.40;;
36497;SDS011;22513;51.222;6.480;2022-11-06T13:57:16;2.95;;;1.48;;
36497;SDS011;22513;51.222;6.480;2022-11-06T14:05:20;2.05;;;1.15;;
36497;SDS011;22513;51.222;6.480;2022-11-06T14:07:56;2.75;;;1.33;;
36497;SDS011;22513;51.222;6.480;2022-11-06T14:10:31;2.70;;;1.15;;
36497;SDS011;22513;51.222;6.480;2022-11-06T14:13:01;4.70;;;1.63;;
36497;SDS011;22513;51.222;6.480;2022-11-06T14:15:31;4.30;;;1.10;;
36497;SDS011;22513;51.222;6.480;2022-11-06T14:18:01;3.47;;;1.20;;
36497;SDS011;22513;51.222;6.480;2022-11-06T14:20:32;3.90;;;1.77;;
36497;SDS011;22513;51.222;6.480;2022-11-06T14:23:44;3.33;;;1.35;;
36497;SDS011;22513;51.222;6.480;2022-11-06T14:25:57;4.28;;;1.30;;
36497;SDS011;22513;51.222;6.480;2022-11-06T14:30:54;4.57;;;1.60;;
36497;SDS011;22513;51.222;6.480;2022-11-06T14:38:48;2.60;;;1.27;;
36497;SDS011;22513;51.222;6.480;2022-11-06T14:44:05;5.18;;;1.83;;
36497;SDS011;22513;51.222;6.480;2022-11-06T14:46:47;3.72;;;2.13;;
36497;SDS011;22513;51.222;6.480;2022-11-06T14:49:27;6.18;;;1.80;;
36497;SDS011;22513;51.222;6.480;2022-11-06T14:52:15;4.80;;;1.63;;
36497;SDS011;22513;51.222;6.480;2022-11-06T14:54:48;2.92;;;1.70;;
36497;SDS011;22513;51.222;6.480;2022-11-06T14:58:10;7.90;;;3.72;;
36497;SDS011;22513;51.222;6.480;2022-11-06T15:00:59;8.55;;;4.53;;
36497;SDS011;22513;51.222;6.480;2022-11-06T15:02:58;8.93;;;3.53;;
36497;SDS011;22513;51.222;6.480;2022-11-06T15:05:24;9.80;;;4.32;;
36497;SDS011;22513;51.222;6.480;2022-11-06T15:07:52;5.50;;;2.30;;
36497;SDS011;22513;51.222;6.480;2022-11-06T15:15:40;3.92;;;2.00;;
36497;SDS011;22513;51.222;6.480;2022-11-06T15:18:13;7.43;;;2.53;;
36497;SDS011;22513;51.222;6.480;2022-11-06T15:20:54;3.28;;;1.88;;
36497;SDS011;22513;51.222;6.480;2022-11-06T15:23:22;7.20;;;2.08;;
36497;SDS011;22513;51.222;6.480;2022-11-06T15:26:05;7.40;;;2.00;;
36497;SDS011;22513;51.222;6.480;2022-11-06T15:28:43;8.38;;;2.70;;
36497;SDS011;22513;51.222;6.480;2022-11-06T15:31:19;6.72;;;2.78;;
36497;SDS011;22513;51.222;6.480;2022-11-06T15:36:17;4.18;;;2.40;;
36497;SDS011;22513;51.222;6.480;2022-11-06T15:38:44;6.22;;;2.40;;
36497;SDS011;22513;51.222;6.480;2022-11-06T15:41:27;4.88;;;2.60;;
36497;SDS011;22513;51.222;6.480;2022-11-06T15:43:54;4.47;;;2.17;;
36497;SDS011;22513;51.222;6.480;2022-11-06T15:46:21;5.82;;;2.00;;
36497;SDS011;22513;51.222;6.480;2022-11-06T15:48:48;5.35;;;2.78;;
36497;SDS011;22513;51.222;6.480;2022-11-06T15:54:30;3.83;;;2.10;;
36497;SDS011;22513;51.222;6.480;2022-11-06T15:57:01;8.48;;;2.40;;
36497;SDS011;22513;51.222;6.480;2022-11-06T15:59:37;12.48;;;2.45;;
36497;SDS011;22513;51.222;6.480;2022-11-06T16:02:16;2.85;;;2.00;;
36497;SDS011;22513;51.222;6.480;2022-11-06T16:04:44;3.75;;;2.53;;
36497;SDS011;22513;51.222;6.480;2022-11-06T16:07:10;3.70;;;2.50;;
36497;SDS011;22513;51.222;6.480;2022-11-06T16:09:36;4.93;;;2.55;;
36497;SDS011;22513;51.222;6.480;2022-11-06T16:12:05;7.10;;;2.47;;
36497;SDS011;22513;51.222;6.480;2022-11-06T16:14:31;5.50;;;2.63;;
36497;SDS011;22513;51.222;6.480;2022-11-06T16:17:17;5.75;;;2.28;;
36497;SDS011;22513;51.222;6.480;2022-11-06T16:19:48;2.80;;;1.95;;
36497;SDS011;22513;51.222;6.480;2022-11-06T16:22:16;5.00;;;2.22;;
36497;SDS011;22513;51.222;6.480;2022-11-06T16:27:17;6.00;;;2.58;;
36497;SDS011;22513;51.222;6.480;2022-11-06T16:29:44;5.63;;;2.20;;
36497;SDS011;22513;51.222;6.480;2022-11-06T16:32:14;3.70;;;2.50;;
36497;SDS011;22513;51.222;6.480;2022-11-06T16:34:43;5.38;;;2.00;;
36497;SDS011;22513;51.222;6.480;2022-11-06T16:42:24;6.80;;;2.85;;
36497;SDS011;22513;51.222;6.480;2022-11-06T16:45:14;4.30;;;3.13;;
36497;SDS011;22513;51.222;6.480;2022-11-06T16:50:47;6.57;;;2.70;;
36497;SDS011;22513;51.222;6.480;2022-11-06T16:53:17;5.72;;;2.75;;
36497;SDS011;22513;51.222;6.480;2022-11-06T16:55:58;5.90;;;2.55;;
36497;SDS011;22513;51.222;6.480;2022-11-06T16:58:26;4.60;;;2.38;;
36497;SDS011;22513;51.222;6.480;2022-11-06T17:01:01;7.47;;;2.13;;
36497;SDS011;22513;51.222;6.480;2022-11-06T17:03:39;4.90;;;1.85;;
36497;SDS011;22513;51.222;6.480;2022-11-06T17:06:17;4.95;;;2.08;;
36497;SDS011;22513;51.222;6.480;2022-11-06T17:08:52;3.80;;;2.00;;
36497;SDS011;22513;51.222;6.480;2022-11-06T17:11:22;5.82;;;2.25;;
36497;SDS011;22513;51.222;6.480;2022-11-06T17:13:48;4.53;;;2.15;;
36497;SDS011;22513;51.222;6.480;2022-11-06T17:16:18;4.20;;;2.38;;
36497;SDS011;22513;51.222;6.480;2022-11-06T17:18:49;5.32;;;2.00;;
36497;SDS011;22513;51.222;6.480;2022-11-06T17:23:50;2.83;;;2.15;;
36497;SDS011;22513;51.222;6.480;2022-11-06T17:26:26;2.50;;;2.15;;
36497;SDS011;22513;51.222;6.480;2022-11-06T17:31:19;4.53;;;2.20;;
36497;SDS011;22513;51.222;6.480;2022-11-06T17:33:46;4.65;;;2.10;;
36497;SDS011;22513;51.222;6.480;2022-11-06T17:36:19;3.15;;;2.20;;
36497;SDS011;22513;51.222;6.480;2022-11-06T17:38:49;4.00;;;2.20;;
36497;SDS011;22513;51.222;6.480;2022-11-06T17:41:15;4.03;;;2.15;;
36497;SDS011;22513;51.222;6.480;2022-11-06T17:43:57;3.38;;;2.22;;
36497;SDS011;22513;51.222;6.480;2022-11-06T17:46:28;3.75;;;2.22;;
36497;SDS011;22513;51.222;6.480;2022-11-06T17:48:57;5.47;;;3.03;;
36497;SDS011;22513;51.222;6.480;2022-11-06T17:51:23;2.53;;;1.90;;